createdAt,value
2024-05-09T00:00:06.000Z,13.50
2024-05-09T00:01:06.000Z,13.47
2024-05-09T00:02:05.000Z,13.44
2024-05-09T00:03:06.000Z,13.41
2024-05-09T00:04:06.000Z,13.42
2024-05-09T00:05:08.000Z,13.39
2024-05-09T00:06:07.000Z,13.37
2024-05-09T00:07:05.000Z,13.28
2024-05-09T00:08:07.000Z,13.16
2024-05-09T00:09:05.000Z,13.17
2024-05-09T00:10:06.000Z,13.14
2024-05-09T00:11:05.000Z,13.14
2024-05-09T00:12:05.000Z,13.14
2024-05-09T00:13:06.000Z,13.14
2024-05-09T00:14:05.000Z,13.18
2024-05-09T00:15:06.000Z,13.18
2024-05-09T00:16:06.000Z,13.19
2024-05-09T00:17:06.000Z,13.20
2024-05-09T00:18:06.000Z,13.23
2024-05-09T00:19:06.000Z,13.20
2024-05-09T00:20:06.000Z,13.22
2024-05-09T00:21:07.000Z,13.20
2024-05-09T00:22:06.000Z,13.19
2024-05-09T00:23:09.000Z,13.19
2024-05-09T00:24:05.000Z,13.18
2024-05-09T00:25:07.000Z,13.18
2024-05-09T00:26:06.000Z,13.18
2024-05-09T00:27:05.000Z,13.18
2024-05-09T00:28:06.000Z,13.17
2024-05-09T00:29:06.000Z,13.15
2024-05-09T00:30:07.000Z,13.12
2024-05-09T00:31:05.000Z,13.17
2024-05-09T00:32:06.000Z,13.13
2024-05-09T00:33:06.000Z,13.17
2024-05-09T00:34:06.000Z,13.16
2024-05-09T00:35:06.000Z,13.14
2024-05-09T00:36:06.000Z,13.15
2024-05-09T00:37:05.000Z,13.14
2024-05-09T00:38:06.000Z,13.13
2024-05-09T00:39:06.000Z,13.12
2024-05-09T00:40:06.000Z,13.12
2024-05-09T00:41:06.000Z,13.09
2024-05-09T00:42:06.000Z,13.09
2024-05-09T00:43:06.000Z,13.04
2024-05-09T00:44:06.000Z,13.02
2024-05-09T00:45:06.000Z,12.99
2024-05-09T00:46:08.000Z,12.97
2024-05-09T00:47:07.000Z,12.99
2024-05-09T00:48:08.000Z,12.98
2024-05-09T00:49:07.000Z,12.93
2024-05-09T00:50:06.000Z,12.95
2024-05-09T00:51:06.000Z,12.94
2024-05-09T00:52:06.000Z,12.93
2024-05-09T00:53:08.000Z,12.95
2024-05-09T00:54:06.000Z,12.90
2024-05-09T00:55:06.000Z,12.90
2024-05-09T00:56:07.000Z,12.87
2024-05-09T00:57:06.000Z,12.87
2024-05-09T00:58:08.000Z,12.88
2024-05-09T00:59:06.000Z,12.88
2024-05-09T01:00:09.000Z,12.88
2024-05-09T01:01:06.000Z,12.89
2024-05-09T01:02:06.000Z,12.88
2024-05-09T01:03:06.000Z,12.87
2024-05-09T01:04:06.000Z,12.87
2024-05-09T01:05:06.000Z,12.88
2024-05-09T01:06:06.000Z,12.86
2024-05-09T01:07:06.000Z,12.84
2024-05-09T01:08:06.000Z,12.81
2024-05-09T01:09:06.000Z,12.81
2024-05-09T01:10:06.000Z,12.79
2024-05-09T01:11:06.000Z,12.76
2024-05-09T01:12:06.000Z,12.76
2024-05-09T01:13:06.000Z,12.76
2024-05-09T01:14:06.000Z,12.75
2024-05-09T01:15:06.000Z,12.71
2024-05-09T01:16:06.000Z,12.70
2024-05-09T01:17:06.000Z,12.71
2024-05-09T01:18:08.000Z,12.68
2024-05-09T01:19:18.000Z,12.69
2024-05-09T01:20:06.000Z,12.64
2024-05-09T01:21:08.000Z,12.63
2024-05-09T01:22:06.000Z,12.61
2024-05-09T01:23:06.000Z,12.59
2024-05-09T01:24:06.000Z,12.58
2024-05-09T01:25:06.000Z,12.57
2024-05-09T01:26:06.000Z,12.54
2024-05-09T01:27:06.000Z,12.54
2024-05-09T01:28:06.000Z,12.53
2024-05-09T01:29:06.000Z,12.53
2024-05-09T01:30:06.000Z,12.52
2024-05-09T01:31:05.000Z,12.52
2024-05-09T01:32:05.000Z,12.52
2024-05-09T01:33:06.000Z,12.52
2024-05-09T01:34:05.000Z,12.51
2024-05-09T01:35:05.000Z,12.47
2024-05-09T01:36:05.000Z,12.46
2024-05-09T01:37:05.000Z,12.45
2024-05-09T01:38:06.000Z,12.44
2024-05-09T01:39:05.000Z,12.41
2024-05-09T01:40:06.000Z,12.40
2024-05-09T01:41:05.000Z,12.39
2024-05-09T01:42:05.000Z,12.38
2024-05-09T01:43:06.000Z,12.38
2024-05-09T01:44:05.000Z,12.36
2024-05-09T01:45:09.000Z,12.35
2024-05-09T01:46:11.000Z,12.34
2024-05-09T01:47:05.000Z,12.34
2024-05-09T01:48:07.000Z,12.34
2024-05-09T01:49:06.000Z,12.36
2024-05-09T01:50:06.000Z,12.37
2024-05-09T01:51:05.000Z,12.37
2024-05-09T01:52:05.000Z,12.37
2024-05-09T01:53:07.000Z,12.35
2024-05-09T01:54:05.000Z,12.36
2024-05-09T01:55:06.000Z,12.34
2024-05-09T01:56:06.000Z,12.37
2024-05-09T01:57:06.000Z,12.33
2024-05-09T01:58:06.000Z,12.30
2024-05-09T01:59:06.000Z,12.32
2024-05-09T02:00:06.000Z,12.31
2024-05-09T02:01:05.000Z,12.28
2024-05-09T02:02:05.000Z,12.29
2024-05-09T02:03:07.000Z,12.27
2024-05-09T02:04:05.000Z,12.27
2024-05-09T02:05:06.000Z,12.27
2024-05-09T02:06:05.000Z,12.26
2024-05-09T02:07:05.000Z,12.22
2024-05-09T02:08:12.000Z,12.21
2024-05-09T02:09:06.000Z,12.21
2024-05-09T02:10:05.000Z,12.20
2024-05-09T02:11:07.000Z,12.20
2024-05-09T02:12:05.000Z,12.19
2024-05-09T02:13:08.000Z,12.19
2024-05-09T02:14:05.000Z,12.16
2024-05-09T02:15:06.000Z,12.15
2024-05-09T02:16:09.000Z,12.18
2024-05-09T02:17:05.000Z,12.14
2024-05-09T02:18:06.000Z,12.14
2024-05-09T02:19:05.000Z,12.13
2024-05-09T02:20:06.000Z,12.14
2024-05-09T02:21:07.000Z,12.11
2024-05-09T02:22:05.000Z,12.13
2024-05-09T02:23:06.000Z,12.12
2024-05-09T02:24:05.000Z,12.11
2024-05-09T02:25:05.000Z,12.12
2024-05-09T02:26:05.000Z,12.08
2024-05-09T02:27:05.000Z,12.08
2024-05-09T02:28:05.000Z,12.09
2024-05-09T02:29:05.000Z,12.09
2024-05-09T02:30:06.000Z,12.08
2024-05-09T02:31:06.000Z,12.04
2024-05-09T02:32:06.000Z,12.04
2024-05-09T02:33:06.000Z,12.03
2024-05-09T02:34:06.000Z,12.04
2024-05-09T02:35:06.000Z,12.02
2024-05-09T02:36:06.000Z,12.01
2024-05-09T02:37:06.000Z,12.02
2024-05-09T02:38:07.000Z,12.00
2024-05-09T02:39:06.000Z,12.00
2024-05-09T02:40:07.000Z,11.97
2024-05-09T02:41:07.000Z,11.99
2024-05-09T02:42:06.000Z,11.98
2024-05-09T02:43:06.000Z,11.96
2024-05-09T02:44:06.000Z,11.98
2024-05-09T02:45:06.000Z,11.96
2024-05-09T02:46:06.000Z,11.92
2024-05-09T02:47:06.000Z,11.90
2024-05-09T02:48:08.000Z,11.90
2024-05-09T02:49:06.000Z,11.87
2024-05-09T02:50:06.000Z,11.86
2024-05-09T02:51:06.000Z,11.86
2024-05-09T02:52:06.000Z,11.85
2024-05-09T02:53:06.000Z,11.83
2024-05-09T02:54:06.000Z,11.81
2024-05-09T02:55:06.000Z,11.79
2024-05-09T02:56:06.000Z,11.82
2024-05-09T02:57:06.000Z,11.81
2024-05-09T02:58:06.000Z,11.76
2024-05-09T02:59:06.000Z,11.76
2024-05-09T03:00:06.000Z,11.76
2024-05-09T03:01:06.000Z,11.73
2024-05-09T03:02:05.000Z,11.74
2024-05-09T03:03:06.000Z,11.73
2024-05-09T03:04:05.000Z,11.71
2024-05-09T03:05:05.000Z,11.71
2024-05-09T03:06:05.000Z,11.71
2024-05-09T03:07:05.000Z,11.70
2024-05-09T03:08:05.000Z,11.68
2024-05-09T03:09:08.000Z,11.59
2024-05-09T03:10:06.000Z,11.40
2024-05-09T03:11:05.000Z,11.41
2024-05-09T03:12:06.000Z,11.43
2024-05-09T03:13:06.000Z,11.40
2024-05-09T03:14:06.000Z,11.35
2024-05-09T03:15:06.000Z,11.32
2024-05-09T03:16:06.000Z,11.30
2024-05-09T03:17:06.000Z,11.27
2024-05-09T03:18:05.000Z,11.21
2024-05-09T03:19:05.000Z,11.18
2024-05-09T03:20:06.000Z,11.17
2024-05-09T03:21:06.000Z,11.16
2024-05-09T03:22:05.000Z,11.15
2024-05-09T03:23:06.000Z,11.12
2024-05-09T03:24:06.000Z,11.13
2024-05-09T03:25:06.000Z,11.11
2024-05-09T03:26:13.000Z,11.07
2024-05-09T03:27:05.000Z,11.04
2024-05-09T03:28:06.000Z,10.99
2024-05-09T03:29:05.000Z,10.96
2024-05-09T03:30:06.000Z,10.98
2024-05-09T03:31:07.000Z,10.93
2024-05-09T03:32:05.000Z,10.92
2024-05-09T03:33:08.000Z,10.93
2024-05-09T03:34:05.000Z,10.90
2024-05-09T03:35:06.000Z,10.89
2024-05-09T03:36:06.000Z,10.91
2024-05-09T03:37:06.000Z,10.88
2024-05-09T03:38:05.000Z,10.90
2024-05-09T03:39:08.000Z,10.91
2024-05-09T03:40:07.000Z,10.90
2024-05-09T03:41:06.000Z,10.88
2024-05-09T03:42:05.000Z,10.87
2024-05-09T03:43:05.000Z,10.87
2024-05-09T03:44:06.000Z,10.86
2024-05-09T03:45:06.000Z,10.84
2024-05-09T03:46:05.000Z,10.84
2024-05-09T03:47:05.000Z,10.82
2024-05-09T03:48:06.000Z,10.81
2024-05-09T03:49:06.000Z,10.79
2024-05-09T03:50:06.000Z,10.83
2024-05-09T03:51:05.000Z,10.79
2024-05-09T03:52:05.000Z,10.77
2024-05-09T03:53:09.000Z,10.74
2024-05-09T03:54:05.000Z,10.74
2024-05-09T03:55:06.000Z,10.74
2024-05-09T03:56:06.000Z,10.74
2024-05-09T03:57:05.000Z,10.76
2024-05-09T03:58:07.000Z,10.78
2024-05-09T03:59:05.000Z,10.79
2024-05-09T04:00:07.000Z,10.77
2024-05-09T04:01:05.000Z,10.77
2024-05-09T04:02:05.000Z,10.74
2024-05-09T04:03:06.000Z,10.70
2024-05-09T04:04:07.000Z,10.71
2024-05-09T04:05:05.000Z,10.70
2024-05-09T04:06:06.000Z,10.66
2024-05-09T04:07:06.000Z,10.65
2024-05-09T04:08:06.000Z,10.62
2024-05-09T04:09:05.000Z,10.64
2024-05-09T04:10:06.000Z,10.62
2024-05-09T04:11:05.000Z,10.65
2024-05-09T04:12:06.000Z,10.64
2024-05-09T04:13:05.000Z,10.60
2024-05-09T04:14:05.000Z,10.62
2024-05-09T04:15:06.000Z,10.63
2024-05-09T04:16:08.000Z,10.60
2024-05-09T04:17:06.000Z,10.61
2024-05-09T04:18:06.000Z,10.61
2024-05-09T04:19:06.000Z,10.59
2024-05-09T04:20:06.000Z,10.56
2024-05-09T04:21:06.000Z,10.58
2024-05-09T04:22:06.000Z,10.56
2024-05-09T04:23:10.000Z,10.54
2024-05-09T04:24:06.000Z,10.53
2024-05-09T04:25:06.000Z,10.49
2024-05-09T04:26:07.000Z,10.49
2024-05-09T04:27:05.000Z,10.50
2024-05-09T04:28:06.000Z,10.49
2024-05-09T04:29:06.000Z,10.51
2024-05-09T04:30:06.000Z,10.48
2024-05-09T04:31:05.000Z,10.42
2024-05-09T04:32:06.000Z,10.43
2024-05-09T04:33:06.000Z,10.40
2024-05-09T04:34:05.000Z,10.42
2024-05-09T04:35:05.000Z,10.47
2024-05-09T04:36:05.000Z,10.48
2024-05-09T04:37:05.000Z,10.48
2024-05-09T04:38:06.000Z,10.48
2024-05-09T04:39:05.000Z,10.49
2024-05-09T04:40:06.000Z,10.52
2024-05-09T04:41:05.000Z,10.52
2024-05-09T04:42:05.000Z,10.49
2024-05-09T04:43:12.000Z,10.52
2024-05-09T04:44:05.000Z,10.53
2024-05-09T04:45:05.000Z,10.54
2024-05-09T04:46:05.000Z,10.58
2024-05-09T04:47:05.000Z,10.62
2024-05-09T04:48:06.000Z,10.63
2024-05-09T04:49:05.000Z,10.63
2024-05-09T04:50:05.000Z,10.65
2024-05-09T04:51:05.000Z,10.65
2024-05-09T04:52:05.000Z,10.66
2024-05-09T04:53:06.000Z,10.69
2024-05-09T04:54:05.000Z,10.71
2024-05-09T04:55:05.000Z,10.75
2024-05-09T04:56:05.000Z,10.75
2024-05-09T04:57:05.000Z,10.76
2024-05-09T04:58:08.000Z,10.76
2024-05-09T04:59:05.000Z,10.78
2024-05-09T05:00:06.000Z,10.78
2024-05-09T05:01:05.000Z,10.83
2024-05-09T05:02:05.000Z,10.84
2024-05-09T05:03:06.000Z,10.87
2024-05-09T05:04:05.000Z,10.88
2024-05-09T05:05:05.000Z,10.89
2024-05-09T05:06:06.000Z,10.90
2024-05-09T05:07:05.000Z,10.92
2024-05-09T05:08:14.000Z,10.93
2024-05-09T05:09:05.000Z,10.94
2024-05-09T05:10:06.000Z,10.95
2024-05-09T05:11:05.000Z,10.94
2024-05-09T05:12:20.000Z,10.96
2024-05-09T05:13:10.000Z,10.98
2024-05-09T05:14:05.000Z,10.95
2024-05-09T05:15:06.000Z,10.96
2024-05-09T05:16:05.000Z,10.98
2024-05-09T05:17:05.000Z,10.96
2024-05-09T05:18:05.000Z,11.00
2024-05-09T05:19:05.000Z,11.00
2024-05-09T05:20:06.000Z,11.01
2024-05-09T05:21:05.000Z,11.03
2024-05-09T05:22:05.000Z,11.03
2024-05-09T05:23:09.000Z,11.04
2024-05-09T05:24:05.000Z,11.07
2024-05-09T05:25:05.000Z,11.07
2024-05-09T05:26:05.000Z,11.10
2024-05-09T05:27:05.000Z,11.11
2024-05-09T05:28:06.000Z,11.12
2024-05-09T05:29:05.000Z,11.14
2024-05-09T05:30:06.000Z,11.17
2024-05-09T05:31:05.000Z,11.17
2024-05-09T05:32:05.000Z,11.19
2024-05-09T05:33:08.000Z,11.21
2024-05-09T05:34:05.000Z,11.24
2024-05-09T05:35:05.000Z,11.25
2024-05-09T05:36:06.000Z,11.29
2024-05-09T05:37:05.000Z,11.28
2024-05-09T05:38:06.000Z,11.31
2024-05-09T05:39:05.000Z,11.35
2024-05-09T05:40:06.000Z,11.36
2024-05-09T05:41:05.000Z,11.38
2024-05-09T05:42:05.000Z,11.39
2024-05-09T05:43:14.000Z,11.42
2024-05-09T05:44:05.000Z,11.45
2024-05-09T05:45:06.000Z,11.45
2024-05-09T05:46:05.000Z,11.49
2024-05-09T05:47:05.000Z,11.50
2024-05-09T05:48:06.000Z,11.52
2024-05-09T05:49:05.000Z,11.56
2024-05-09T05:50:05.000Z,11.58
2024-05-09T05:51:06.000Z,11.61
2024-05-09T05:52:05.000Z,11.62
2024-05-09T05:53:05.000Z,11.63
2024-05-09T05:54:05.000Z,11.67
2024-05-09T05:55:05.000Z,11.71
2024-05-09T05:56:06.000Z,11.70
2024-05-09T05:57:05.000Z,11.74
2024-05-09T05:58:09.000Z,11.75
2024-05-09T05:59:05.000Z,11.77
2024-05-09T06:00:06.000Z,11.80
2024-05-09T06:01:05.000Z,11.81
2024-05-09T06:02:06.000Z,11.79
2024-05-09T06:03:06.000Z,11.84
2024-05-09T06:04:05.000Z,11.83
2024-05-09T06:05:06.000Z,11.87
2024-05-09T06:06:06.000Z,11.87
2024-05-09T06:07:06.000Z,11.89
2024-05-09T06:08:06.000Z,11.93
2024-05-09T06:09:06.000Z,11.97
2024-05-09T06:10:06.000Z,11.99
2024-05-09T06:11:06.000Z,12.00
2024-05-09T06:12:06.000Z,12.04
2024-05-09T06:13:07.000Z,12.06
2024-05-09T06:14:06.000Z,12.10
2024-05-09T06:15:06.000Z,12.10
2024-05-09T06:16:06.000Z,12.12
2024-05-09T06:17:06.000Z,12.16
2024-05-09T06:18:07.000Z,12.17
2024-05-09T06:19:06.000Z,12.19
2024-05-09T06:20:06.000Z,12.22
2024-05-09T06:21:06.000Z,12.24
2024-05-09T06:22:08.000Z,12.23
2024-05-09T06:23:06.000Z,12.23
2024-05-09T06:24:06.000Z,12.25
2024-05-09T06:25:06.000Z,12.28
2024-05-09T06:26:06.000Z,12.29
2024-05-09T06:27:06.000Z,12.31
2024-05-09T06:28:06.000Z,12.33
2024-05-09T06:29:06.000Z,12.31
2024-05-09T06:30:06.000Z,12.35
2024-05-09T06:31:06.000Z,12.37
2024-05-09T06:32:06.000Z,12.39
2024-05-09T06:33:07.000Z,12.42
2024-05-09T06:34:05.000Z,12.40
2024-05-09T06:35:06.000Z,12.40
2024-05-09T06:36:06.000Z,12.39
2024-05-09T06:37:06.000Z,12.40
2024-05-09T06:38:07.000Z,12.36
2024-05-09T06:39:06.000Z,12.40
2024-05-09T06:40:06.000Z,12.39
2024-05-09T06:41:06.000Z,12.41
2024-05-09T06:42:06.000Z,12.40
2024-05-09T06:43:13.000Z,12.41
2024-05-09T06:44:06.000Z,12.43
2024-05-09T06:45:06.000Z,12.45
2024-05-09T06:46:06.000Z,12.48
2024-05-09T06:47:06.000Z,12.54
2024-05-09T06:48:07.000Z,12.58
2024-05-09T06:49:08.000Z,12.60
2024-05-09T06:50:06.000Z,12.61
2024-05-09T06:51:06.000Z,12.62
2024-05-09T06:52:06.000Z,12.67
2024-05-09T06:53:06.000Z,12.69
2024-05-09T06:54:06.000Z,12.72
2024-05-09T06:55:06.000Z,12.68
2024-05-09T06:56:06.000Z,12.71
2024-05-09T06:57:06.000Z,12.72
2024-05-09T06:58:06.000Z,12.72
2024-05-09T06:59:06.000Z,12.74
2024-05-09T07:00:07.000Z,12.77
2024-05-09T07:01:06.000Z,12.74
2024-05-09T07:02:06.000Z,12.73
2024-05-09T07:03:10.000Z,12.78
2024-05-09T07:04:06.000Z,12.79
2024-05-09T07:05:06.000Z,12.79
2024-05-09T07:06:06.000Z,12.83
2024-05-09T07:07:08.000Z,12.85
2024-05-09T07:08:06.000Z,12.88
2024-05-09T07:09:06.000Z,12.90
2024-05-09T07:10:06.000Z,12.91
2024-05-09T07:11:06.000Z,12.90
2024-05-09T07:12:06.000Z,12.91
2024-05-09T07:13:10.000Z,12.97
2024-05-09T07:14:06.000Z,13.01
2024-05-09T07:15:06.000Z,13.04
2024-05-09T07:16:06.000Z,13.03
2024-05-09T07:17:06.000Z,13.05
2024-05-09T07:18:11.000Z,13.13
2024-05-09T07:19:06.000Z,13.17
2024-05-09T07:20:06.000Z,13.22
2024-05-09T07:21:07.000Z,13.24
2024-05-09T07:22:05.000Z,13.24
2024-05-09T07:23:09.000Z,13.23
2024-05-09T07:24:05.000Z,13.23
2024-05-09T07:25:06.000Z,13.27
2024-05-09T07:26:06.000Z,13.29
2024-05-09T07:27:06.000Z,13.32
2024-05-09T07:28:23.000Z,13.33
2024-05-09T07:29:05.000Z,13.36
2024-05-09T07:30:07.000Z,13.40
2024-05-09T07:31:05.000Z,13.42
2024-05-09T07:32:06.000Z,13.47
2024-05-09T07:33:06.000Z,13.49
2024-05-09T07:34:06.000Z,13.52
2024-05-09T07:35:05.000Z,13.54
2024-05-09T07:36:06.000Z,13.58
2024-05-09T07:37:12.000Z,13.62
2024-05-09T07:38:05.000Z,13.63
2024-05-09T07:39:05.000Z,13.63
2024-05-09T07:40:07.000Z,13.67
2024-05-09T07:41:05.000Z,13.69
2024-05-09T07:42:06.000Z,13.72
2024-05-09T07:43:06.000Z,13.78
2024-05-09T07:44:05.000Z,13.81
2024-05-09T07:45:06.000Z,13.86
2024-05-09T07:46:06.000Z,13.91
2024-05-09T07:46:06.000Z,13.91
2024-05-09T07:46:06.000Z,13.91
2024-05-09T07:46:06.000Z,13.91
2024-05-09T07:46:06.000Z,13.91
2024-05-09T07:46:06.000Z,13.91
2024-05-09T07:46:06.000Z,13.91
2024-05-09T07:46:06.000Z,13.91
2024-05-09T07:46:06.000Z,13.91
2024-05-09T07:47:38.000Z,13.99
2024-05-09T07:47:38.000Z,13.99
2024-05-09T07:47:38.000Z,13.99
2024-05-09T07:47:38.000Z,13.99
2024-05-09T07:47:38.000Z,13.99
2024-05-09T07:47:38.000Z,13.99
2024-05-09T07:47:38.000Z,13.99
2024-05-09T07:48:35.000Z,14.05
2024-05-09T07:48:35.000Z,14.05
2024-05-09T07:48:35.000Z,14.05
2024-05-09T07:48:35.000Z,14.05
2024-05-09T07:48:35.000Z,14.05
2024-05-09T07:49:35.000Z,14.08
2024-05-09T07:49:35.000Z,14.08
2024-05-09T07:49:35.000Z,14.08
2024-05-09T07:49:35.000Z,14.08
2024-05-09T07:54:05.000Z,14.31
2024-05-09T07:55:06.000Z,14.36
2024-05-09T07:56:06.000Z,14.37
2024-05-09T07:57:05.000Z,14.42
2024-05-09T07:58:05.000Z,14.48
2024-05-09T07:59:06.000Z,14.53
2024-05-09T08:00:06.000Z,14.51
2024-05-09T08:01:05.000Z,14.56
2024-05-09T08:02:06.000Z,14.59
2024-05-09T08:03:06.000Z,14.63
2024-05-09T08:04:05.000Z,14.66
2024-05-09T08:05:06.000Z,14.73
2024-05-09T08:06:05.000Z,14.72
2024-05-09T08:07:05.000Z,14.74
2024-05-09T08:08:06.000Z,14.77
2024-05-09T08:09:05.000Z,14.79
2024-05-09T08:10:06.000Z,14.85
2024-05-09T08:11:05.000Z,14.91
2024-05-09T08:12:11.000Z,14.95
2024-05-09T08:13:05.000Z,15.03
2024-05-09T08:14:05.000Z,15.04
2024-05-09T08:15:06.000Z,15.11
2024-05-09T08:16:06.000Z,15.18
2024-05-09T08:17:05.000Z,15.23
2024-05-09T08:18:06.000Z,15.29
2024-05-09T08:19:05.000Z,15.35
2024-05-09T08:20:06.000Z,15.42
2024-05-09T08:21:05.000Z,15.45
2024-05-09T08:22:06.000Z,15.48
2024-05-09T08:23:06.000Z,15.51
2024-05-09T08:24:05.000Z,15.54
2024-05-09T08:25:05.000Z,15.58
2024-05-09T08:26:06.000Z,15.56
2024-05-09T08:27:05.000Z,15.56
2024-05-09T08:28:05.000Z,15.61
2024-05-09T08:29:05.000Z,15.69
2024-05-09T08:30:06.000Z,15.69
2024-05-09T08:31:05.000Z,15.73
2024-05-09T08:32:06.000Z,15.72
2024-05-09T08:33:05.000Z,15.87
2024-05-09T08:34:05.000Z,15.84
2024-05-09T08:35:06.000Z,15.77
2024-05-09T08:36:05.000Z,15.92
2024-05-09T08:37:05.000Z,16.13
2024-05-09T08:38:05.000Z,16.11
2024-05-09T08:39:05.000Z,16.07
2024-05-09T08:40:06.000Z,15.98
2024-05-09T08:41:05.000Z,16.06
2024-05-09T08:42:06.000Z,16.06
2024-05-09T08:43:07.000Z,16.06
2024-05-09T08:44:05.000Z,16.15
2024-05-09T08:45:06.000Z,16.15
2024-05-09T08:46:07.000Z,16.30
2024-05-09T08:47:08.000Z,16.23
2024-05-09T08:48:06.000Z,16.20
2024-05-09T08:49:05.000Z,16.25
2024-05-09T08:50:06.000Z,16.29
2024-05-09T08:51:05.000Z,16.38
2024-05-09T08:52:06.000Z,16.40
2024-05-09T08:53:06.000Z,16.47
2024-05-09T08:54:05.000Z,16.53
2024-05-09T08:55:06.000Z,16.51
2024-05-09T08:56:08.000Z,16.59
2024-05-09T08:57:06.000Z,16.60
2024-05-09T08:58:07.000Z,16.62
2024-05-09T08:59:09.000Z,16.70
2024-05-09T09:00:06.000Z,16.74
2024-05-09T09:01:06.000Z,16.77
2024-05-09T09:02:11.000Z,16.83
2024-05-09T09:03:07.000Z,16.98
2024-05-09T09:04:08.000Z,17.06
2024-05-09T09:05:09.000Z,17.04
2024-05-09T09:06:09.000Z,17.10
2024-05-09T09:07:05.000Z,17.08
2024-05-09T09:08:06.000Z,17.03
2024-05-09T09:09:07.000Z,17.00
2024-05-09T09:10:06.000Z,17.05
2024-05-09T09:11:05.000Z,16.94
2024-05-09T09:12:06.000Z,16.89
2024-05-09T09:13:07.000Z,16.87
2024-05-09T09:14:05.000Z,16.87
2024-05-09T09:15:05.000Z,16.85
2024-05-09T09:16:06.000Z,16.85
2024-05-09T09:17:14.000Z,16.83
2024-05-09T09:18:05.000Z,16.83
2024-05-09T09:19:05.000Z,16.80
2024-05-09T09:20:06.000Z,16.76
2024-05-09T09:21:09.000Z,16.82
2024-05-09T09:22:05.000Z,16.87
2024-05-09T09:23:06.000Z,16.87
2024-05-09T09:24:07.000Z,16.88
2024-05-09T09:25:06.000Z,16.91
2024-05-09T09:26:05.000Z,16.90
2024-05-09T09:27:06.000Z,16.87
2024-05-09T09:28:06.000Z,16.89
2024-05-09T09:29:05.000Z,16.97
2024-05-09T09:30:06.000Z,17.03
2024-05-09T09:31:05.000Z,17.10
2024-05-09T09:32:07.000Z,17.12
2024-05-09T09:33:08.000Z,17.09
2024-05-09T09:34:07.000Z,17.15
2024-05-09T09:35:06.000Z,17.25
2024-05-09T09:36:06.000Z,17.33
2024-05-09T09:37:07.000Z,17.48
2024-05-09T09:38:06.000Z,17.54
2024-05-09T09:39:06.000Z,17.57
2024-05-09T09:40:08.000Z,17.58
2024-05-09T09:41:07.000Z,17.58
2024-05-09T09:42:06.000Z,17.61
2024-05-09T09:43:12.000Z,17.60
2024-05-09T09:44:07.000Z,17.61
2024-05-09T09:45:06.000Z,17.73
2024-05-09T09:46:07.000Z,17.70
2024-05-09T09:47:07.000Z,17.70
2024-05-09T09:48:07.000Z,17.72
2024-05-09T09:49:06.000Z,17.79
2024-05-09T09:50:06.000Z,17.78
2024-05-09T09:51:06.000Z,17.74
2024-05-09T09:52:06.000Z,17.69
2024-05-09T09:53:06.000Z,17.68
2024-05-09T09:54:07.000Z,17.67
2024-05-09T09:55:08.000Z,17.67
2024-05-09T09:56:08.000Z,17.73
2024-05-09T09:57:05.000Z,17.76
2024-05-09T09:58:05.000Z,17.87
2024-05-09T09:59:08.000Z,17.90
2024-05-09T10:00:08.000Z,17.92
2024-05-09T10:01:05.000Z,17.91
2024-05-09T10:02:05.000Z,17.97
2024-05-09T10:03:05.000Z,17.98
2024-05-09T10:04:06.000Z,18.02
2024-05-09T10:05:06.000Z,18.08
2024-05-09T10:06:07.000Z,18.12
2024-05-09T10:07:07.000Z,18.13
2024-05-09T10:08:07.000Z,18.20
2024-05-09T10:09:06.000Z,18.17
2024-05-09T10:10:06.000Z,18.14
2024-05-09T10:11:05.000Z,18.10
2024-05-09T10:12:11.000Z,18.14
2024-05-09T10:13:06.000Z,18.16
2024-05-09T10:14:08.000Z,18.17
2024-05-09T10:15:09.000Z,18.30
2024-05-09T10:16:08.000Z,18.33
2024-05-09T10:17:05.000Z,18.29
2024-05-09T10:18:05.000Z,18.41
2024-05-09T10:19:05.000Z,18.36
2024-05-09T10:20:06.000Z,18.26
2024-05-09T10:21:13.000Z,18.26
2024-05-09T10:22:07.000Z,18.22
2024-05-09T10:23:24.000Z,18.29
2024-05-09T10:24:05.000Z,18.21
2024-05-09T10:25:06.000Z,18.18
2024-05-09T10:26:05.000Z,18.14
2024-05-09T10:27:05.000Z,18.17
2024-05-09T10:28:10.000Z,18.24
2024-05-09T10:29:13.000Z,18.30
2024-05-09T10:30:06.000Z,18.32
2024-05-09T10:31:10.000Z,18.34
2024-05-09T10:32:06.000Z,18.38
2024-05-09T10:33:09.000Z,18.43
2024-05-09T10:34:05.000Z,18.49
2024-05-09T10:35:07.000Z,18.62
2024-05-09T10:36:16.000Z,18.68
2024-05-09T10:37:05.000Z,18.71
2024-05-09T10:38:06.000Z,18.70
2024-05-09T10:39:05.000Z,18.78
2024-05-09T10:40:06.000Z,18.77
2024-05-09T10:41:06.000Z,18.83
2024-05-09T10:42:08.000Z,18.80
2024-05-09T10:43:05.000Z,18.86
2024-05-09T10:44:14.000Z,18.86
2024-05-09T10:45:06.000Z,18.86
2024-05-09T10:46:05.000Z,18.90
2024-05-09T10:47:05.000Z,18.91
2024-05-09T10:48:06.000Z,18.97
2024-05-09T10:49:06.000Z,18.99
2024-05-09T10:50:05.000Z,19.03
2024-05-09T10:51:06.000Z,19.02
2024-05-09T10:52:06.000Z,19.02
2024-05-09T10:53:05.000Z,19.09
2024-05-09T10:54:09.000Z,19.12
2024-05-09T10:55:05.000Z,19.17
2024-05-09T10:56:05.000Z,19.29
2024-05-09T10:57:05.000Z,19.33
2024-05-09T10:58:15.000Z,19.32
2024-05-09T10:59:05.000Z,19.32
2024-05-09T11:00:06.000Z,19.36
2024-05-09T11:01:06.000Z,19.49
2024-05-09T11:02:06.000Z,19.51
2024-05-09T11:03:09.000Z,19.63
2024-05-09T11:04:06.000Z,19.59
2024-05-09T11:05:07.000Z,19.64
2024-05-09T11:06:05.000Z,19.63
2024-05-09T11:07:11.000Z,19.63
2024-05-09T11:08:05.000Z,19.66
2024-05-09T11:09:05.000Z,19.66
2024-05-09T11:10:06.000Z,19.67
2024-05-09T11:11:06.000Z,19.70
2024-05-09T11:12:05.000Z,19.68
2024-05-09T11:13:05.000Z,19.70
2024-05-09T11:14:10.000Z,19.70
2024-05-09T11:15:05.000Z,19.75
2024-05-09T11:16:15.000Z,19.82
2024-05-09T11:17:06.000Z,19.78
2024-05-09T11:18:05.000Z,19.80
2024-05-09T11:19:12.000Z,19.80
2024-05-09T11:20:05.000Z,19.80
2024-05-09T11:21:10.000Z,19.84
2024-05-09T11:22:05.000Z,19.81
2024-05-09T11:23:05.000Z,19.83
2024-05-09T11:24:05.000Z,19.85
2024-05-09T11:25:06.000Z,19.87
2024-05-09T11:26:05.000Z,19.84
2024-05-09T11:27:05.000Z,19.87
2024-05-09T11:28:05.000Z,19.86
2024-05-09T11:29:05.000Z,19.88
2024-05-09T11:30:15.000Z,19.88
2024-05-09T11:31:08.000Z,19.91
2024-05-09T11:32:06.000Z,19.98
2024-05-09T11:33:09.000Z,19.97
2024-05-09T11:34:05.000Z,20.01
2024-05-09T11:35:05.000Z,20.00
2024-05-09T11:36:06.000Z,19.99
2024-05-09T11:37:05.000Z,20.02
2024-05-09T11:38:05.000Z,20.06
2024-05-09T11:39:05.000Z,20.09
2024-05-09T11:40:06.000Z,20.11
2024-05-09T11:41:05.000Z,20.10
2024-05-09T11:42:05.000Z,20.15
2024-05-09T11:43:05.000Z,20.23
2024-05-09T11:44:05.000Z,20.14
2024-05-09T11:45:06.000Z,20.11
2024-05-09T11:46:05.000Z,20.10
2024-05-09T11:47:05.000Z,20.14
2024-05-09T11:48:06.000Z,20.20
2024-05-09T11:49:06.000Z,20.24
2024-05-09T11:50:05.000Z,20.27
2024-05-09T11:51:05.000Z,20.29
2024-05-09T11:52:05.000Z,20.28
2024-05-09T11:53:05.000Z,20.32
2024-05-09T11:54:05.000Z,20.33
2024-05-09T11:55:06.000Z,20.34
2024-05-09T11:56:06.000Z,20.40
2024-05-09T11:57:05.000Z,20.44
2024-05-09T11:58:05.000Z,20.49
2024-05-09T11:59:05.000Z,20.49
2024-05-09T12:00:06.000Z,20.52
2024-05-09T12:01:05.000Z,20.56
2024-05-09T12:02:05.000Z,20.60
2024-05-09T12:03:05.000Z,20.65
2024-05-09T12:04:05.000Z,20.63
2024-05-09T12:05:05.000Z,20.64
2024-05-09T12:06:05.000Z,20.66
2024-05-09T12:07:05.000Z,20.68
2024-05-09T12:08:06.000Z,20.73
2024-05-09T12:09:05.000Z,20.68
2024-05-09T12:10:06.000Z,20.54
2024-05-09T12:11:05.000Z,20.58
2024-05-09T12:12:05.000Z,20.66
2024-05-09T12:13:05.000Z,20.56
2024-05-09T12:14:06.000Z,20.59
2024-05-09T12:15:06.000Z,20.60
2024-05-09T12:16:05.000Z,20.60
2024-05-09T12:17:05.000Z,20.59
2024-05-09T12:18:05.000Z,20.61
2024-05-09T12:19:05.000Z,20.65
2024-05-09T12:20:06.000Z,20.73
2024-05-09T12:21:05.000Z,20.77
2024-05-09T12:22:05.000Z,20.86
2024-05-09T12:23:06.000Z,20.92
2024-05-09T12:24:05.000Z,20.94
2024-05-09T12:25:06.000Z,20.95
2024-05-09T12:26:05.000Z,20.93
2024-05-09T12:27:05.000Z,20.97
2024-05-09T12:28:06.000Z,21.03
2024-05-09T12:29:05.000Z,21.07
2024-05-09T12:30:08.000Z,21.10
2024-05-09T12:31:05.000Z,21.13
2024-05-09T12:32:05.000Z,21.17
2024-05-09T12:33:09.000Z,21.24
2024-05-09T12:34:05.000Z,21.30
2024-05-09T12:35:05.000Z,21.31